createdAt,value
2019-03-28T00:04:10.818Z,102904.02
2019-03-28T00:09:14.367Z,102901.82
2019-03-28T00:14:17.916Z,102896.60
2019-03-28T00:19:21.479Z,102890.05
2019-03-28T00:24:28.811Z,102886.10
2019-03-28T00:29:32.350Z,102886.99
2019-03-28T00:34:35.923Z,102890.95
2019-03-28T00:39:40.176Z,102897.48
2019-03-28T00:44:43.816Z,102889.19
2019-03-28T00:49:47.381Z,102891.80
2019-03-28T00:54:50.961Z,102891.37
2019-03-28T00:59:54.526Z,102892.23
2019-03-28T01:04:58.090Z,102892.25
2019-03-28T01:10:01.641Z,102898.36
2019-03-28T01:15:06.653Z,102893.11
2019-03-28T01:20:10.371Z,102891.36
2019-03-28T01:25:13.906Z,102903.16
2019-03-28T01:30:17.436Z,102899.68
2019-03-28T01:35:21.010Z,102893.56
2019-03-28T01:40:24.535Z,102895.30
2019-03-28T01:45:28.052Z,102898.81
2019-03-28T01:50:31.579Z,102899.67
2019-03-28T01:55:35.133Z,102894.42
2019-03-28T02:00:38.673Z,102894.41
2019-03-28T02:05:42.226Z,102896.17
2019-03-28T02:10:45.748Z,102900.53
2019-03-28T02:15:49.447Z,102899.22
2019-03-28T02:20:53.015Z,102900.11
2019-03-28T02:25:56.554Z,102906.23
2019-03-28T02:31:00.115Z,102905.79
2019-03-28T02:36:03.680Z,102907.52
2019-03-28T02:41:07.205Z,102914.52
2019-03-28T02:46:10.745Z,102909.28
2019-03-28T02:51:14.418Z,102909.72
2019-03-28T02:56:17.978Z,102911.05
2019-03-28T03:01:21.574Z,102915.41
2019-03-28T03:06:25.094Z,102916.28
2019-03-28T03:11:28.669Z,102916.30
2019-03-28T03:16:32.280Z,102918.48
2019-03-28T03:21:36.044Z,102913.24
2019-03-28T03:26:40.720Z,102925.45
2019-03-28T03:31:44.259Z,102929.41
2019-03-28T03:36:47.803Z,102927.61
2019-03-28T03:41:51.324Z,102932.40
2019-03-28T03:46:54.894Z,102931.98
2019-03-28T03:51:58.425Z,102935.46
2019-03-28T03:57:01.968Z,102921.91
2019-03-28T04:02:05.514Z,102926.30
2019-03-28T04:07:09.182Z,102932.39
2019-03-28T04:12:12.801Z,102929.77
2019-03-28T04:17:16.377Z,102933.27
2019-03-28T04:22:19.912Z,102935.89
2019-03-28T04:27:23.439Z,102936.74
2019-03-28T04:32:26.964Z,102938.94
2019-03-28T04:37:30.472Z,102943.30
2019-03-28T04:42:35.468Z,102950.69
2019-03-28T04:47:39.746Z,102948.92
2019-03-28T04:52:46.083Z,102955.47
2019-03-28T04:57:49.636Z,102950.66
2019-03-28T05:02:54.705Z,102952.84
2019-03-28T05:07:59.830Z,102962.44
2019-03-28T05:13:03.433Z,102961.16
2019-03-28T05:18:11.565Z,102960.28
2019-03-28T05:23:21.668Z,102968.13
2019-03-28T05:28:27.473Z,102971.64
2019-03-28T05:33:33.847Z,102978.18
2019-03-28T05:38:37.703Z,102974.71
2019-03-28T05:43:45.373Z,102973.86
2019-03-28T05:48:48.420Z,102985.61
2019-03-28T05:53:51.938Z,102990.42
2019-03-28T05:58:55.484Z,102997.44
2019-03-28T06:03:59.007Z,102997.46
2019-03-28T06:09:04.218Z,102997.06
2019-03-28T06:14:08.326Z,103005.83
2019-03-28T06:19:13.139Z,103014.59
2019-03-28T06:24:16.814Z,103021.99
2019-03-28T06:29:24.052Z,103026.83
2019-03-28T06:34:27.617Z,103035.14
2019-03-28T06:39:31.495Z,103023.77
2019-03-28T06:44:35.537Z,103020.27
2019-03-28T06:49:39.077Z,103017.63
2019-03-28T06:54:42.658Z,103013.27
2019-03-28T06:59:46.195Z,103019.39
2019-03-28T07:04:49.722Z,103011.08
2019-03-28T07:09:53.299Z,103008.43
2019-03-28T08:16:54.928Z,103038.42
2019-03-28T08:21:58.425Z,103038.73
2019-03-28T08:27:01.936Z,103043.84
2019-03-28T08:32:09.190Z,103045.44
2019-03-28T08:37:13.508Z,103037.84
2019-03-28T08:42:17.032Z,103048.76
2019-03-28T08:47:20.650Z,103047.32
2019-03-28T08:52:24.183Z,103048.08
2019-03-28T08:57:27.734Z,103053.52
2019-03-28T09:02:31.250Z,103051.70
2019-03-28T09:07:34.810Z,103061.17
2019-03-28T09:12:39.770Z,103053.91
2019-03-28T09:17:44.500Z,103055.92
2019-03-28T09:22:48.573Z,103052.27
2019-03-28T09:27:53.257Z,103062.19
2019-03-28T09:32:58.601Z,103053.44
2019-03-28T09:38:03.530Z,103047.20
2019-03-28T09:43:08.478Z,103062.48
2019-03-28T09:48:16.249Z,103067.92
2019-03-28T09:53:21.458Z,103054.95
2019-03-28T09:58:26.140Z,103059.02
2019-03-28T10:03:31.875Z,103055.37
2019-03-28T10:08:36.465Z,103056.98
2019-03-28T10:13:41.647Z,103059.57
2019-03-28T10:18:45.433Z,103057.94
2019-03-28T10:23:51.539Z,103056.73
2019-03-28T10:28:56.529Z,103058.44
2019-03-28T10:34:01.293Z,103046.57
2019-03-28T10:39:08.910Z,103039.69
2019-03-28T10:44:13.412Z,103041.23
2019-03-28T10:49:17.807Z,103043.59
2019-03-28T10:54:25.598Z,103044.02
2019-03-28T10:59:31.814Z,103045.11
2019-03-28T11:04:37.615Z,103044.27
2019-03-28T11:09:44.271Z,103049.87
2019-03-28T11:14:50.282Z,103043.38
2019-03-28T11:19:57.404Z,103049.14
2019-03-28T11:25:02.480Z,103049.88
2019-03-28T11:30:10.013Z,103053.33
2019-03-28T11:35:15.050Z,103066.07
2019-03-28T11:40:20.089Z,103066.63
2019-03-28T11:45:26.744Z,103065.78
2019-03-28T11:50:29.107Z,103068.77
2019-03-28T11:55:32.673Z,103063.70
2019-03-28T12:00:36.192Z,103060.89
2019-03-28T12:05:39.803Z,103065.38
2019-03-28T12:10:43.319Z,103060.98
2019-03-28T12:15:46.824Z,103060.53
2019-03-28T12:20:50.338Z,103067.56
2019-03-28T12:25:53.873Z,103050.95
2019-03-28T12:30:57.481Z,103052.36
2019-03-28T12:36:01.171Z,103053.84
2019-03-28T12:41:04.851Z,103051.39
2019-03-28T12:46:08.372Z,103048.27
2019-03-28T12:51:12.365Z,103042.31
2019-03-28T12:56:15.905Z,103039.58
2019-03-28T13:01:19.458Z,103038.14
2019-03-28T13:06:22.966Z,103038.38
2019-03-28T13:11:26.499Z,103035.69
2019-03-28T13:16:30.210Z,103039.21
2019-03-28T13:21:34.651Z,103041.38
2019-03-28T13:26:38.148Z,103040.30
2019-03-28T13:31:41.669Z,103041.62
2019-03-28T13:36:45.195Z,103037.52
2019-03-28T13:41:48.711Z,103042.83
2019-03-28T13:46:52.228Z,103050.94
2019-03-28T13:51:55.788Z,103051.16
2019-03-28T13:56:59.398Z,103045.88
2019-03-28T14:02:02.932Z,103040.77
2019-03-28T14:07:06.436Z,103048.52
2019-03-28T14:12:09.986Z,103036.39
2019-03-28T14:17:13.555Z,103037.61
2019-03-28T14:22:18.289Z,103036.66
2019-03-28T14:27:22.020Z,103026.60
2019-03-28T14:32:25.552Z,103025.01
2019-03-28T14:37:29.057Z,103021.65
2019-03-28T14:42:32.580Z,103029.03
2019-03-28T14:47:36.101Z,103026.51
2019-03-28T14:52:39.623Z,103021.64
2019-03-28T14:57:43.172Z,103011.16
2019-03-28T15:02:46.732Z,103006.70
2019-03-28T15:07:50.345Z,102993.50
2019-03-28T15:12:53.872Z,103015.16
2019-03-28T15:17:57.413Z,103013.91
2019-03-28T15:23:00.924Z,103021.33
2019-03-28T15:28:04.452Z,103022.48
2019-03-28T15:33:08.028Z,103010.79
2019-03-28T15:38:11.557Z,103011.25
2019-03-28T15:43:16.049Z,103001.99
2019-03-28T15:48:20.211Z,103010.33
2019-03-28T15:53:24.100Z,103008.45
2019-03-28T15:58:27.651Z,103006.50
2019-03-28T16:03:31.167Z,103017.28
2019-03-28T16:08:34.689Z,103013.02
2019-03-28T16:13:38.291Z,103011.33
2019-03-28T16:18:41.831Z,103013.89
2019-03-28T16:23:45.338Z,103012.76
2019-03-28T16:28:48.859Z,103010.48
2019-03-28T16:34:05.819Z,103009.02
2019-03-28T16:38:57.846Z,103018.00
2019-03-28T16:44:01.384Z,103018.95
2019-03-28T16:49:04.937Z,103014.55
2019-03-28T16:54:08.460Z,103022.61
2019-03-28T16:59:12.002Z,103024.07
2019-03-28T17:04:20.942Z,103020.81
2019-03-28T17:09:22.202Z,103014.72
2019-03-28T17:14:26.316Z,103017.08
2019-03-28T17:19:30.029Z,103014.50
2019-03-28T17:24:33.556Z,103015.55
2019-03-28T17:29:37.090Z,103014.44
2019-03-28T17:34:40.647Z,103014.53
2019-03-28T17:39:44.160Z,103016.41
2019-03-28T17:44:47.673Z,103012.03
2019-03-28T17:49:51.808Z,103019.59
2019-03-28T17:54:55.557Z,103011.39
2019-03-28T17:59:59.145Z,103008.37
2019-03-28T18:05:09.196Z,103012.00
2019-03-28T18:10:08.439Z,103017.41
2019-03-28T18:15:12.318Z,103025.09
2019-03-28T18:20:15.888Z,103018.11
2019-03-28T18:25:19.453Z,103026.22
2019-03-28T18:30:23.581Z,103029.01
2019-03-28T18:35:27.098Z,103023.31
2019-03-28T18:40:31.471Z,103019.39
2019-03-28T18:45:35.126Z,103021.20
2019-03-28T18:50:41.094Z,103028.35
2019-03-28T18:55:44.126Z,103028.79
2019-03-28T19:00:48.294Z,103027.87
2019-03-28T19:05:52.041Z,103030.02
2019-03-28T19:10:55.591Z,103035.78
2019-03-28T19:15:59.138Z,103038.84
2019-03-28T19:21:02.714Z,103034.49
2019-03-28T19:26:06.230Z,103026.87
2019-03-28T19:31:09.771Z,103040.33
2019-03-28T19:36:34.945Z,103037.70
2019-03-28T19:41:38.455Z,103041.59
2019-03-28T19:46:41.956Z,103045.53
2019-03-28T19:51:47.695Z,103045.05
2019-03-28T19:56:50.918Z,103046.34
2019-03-28T20:02:00.182Z,103043.30
2019-03-28T20:07:03.723Z,103048.09
2019-03-28T20:12:07.293Z,103048.16
2019-03-28T20:17:10.815Z,103050.39
2019-03-28T20:22:14.335Z,103050.88
2019-03-28T20:27:17.884Z,103050.88
2019-03-28T20:32:21.505Z,103055.28
2019-03-28T20:37:25.321Z,103054.85
2019-03-28T20:42:28.823Z,103050.09
2019-03-28T20:47:32.335Z,103049.63
2019-03-28T20:52:35.862Z,103053.15
2019-03-28T20:57:40.544Z,103051.84
2019-03-28T21:02:44.156Z,103045.75
2019-03-28T21:07:47.667Z,103055.02
2019-03-28T21:12:51.208Z,103064.30
2019-03-28T21:17:54.714Z,103065.67
2019-03-28T21:22:58.249Z,103061.33
2019-03-28T21:28:01.773Z,103060.87
2019-03-28T21:33:05.293Z,103067.01
2019-03-28T21:38:08.816Z,103071.41
2019-03-28T21:43:12.355Z,103066.98
2019-03-28T21:48:16.909Z,103063.09
2019-03-28T21:53:20.707Z,103074.02
2019-03-28T21:58:24.241Z,103067.01
2019-03-28T22:03:27.759Z,103080.58
2019-03-28T22:08:31.346Z,103077.06
2019-03-28T22:13:34.883Z,103077.12
2019-03-28T22:18:38.403Z,103080.23
2019-03-28T22:23:41.942Z,103073.27
2019-03-28T22:28:45.459Z,103077.72
2019-03-28T22:33:49.110Z,103073.80
2019-03-28T22:38:52.606Z,103078.59
2019-03-28T22:43:56.161Z,103074.23
2019-03-28T22:48:59.689Z,103075.23
2019-03-28T22:54:03.205Z,103069.11
2019-03-28T22:59:06.784Z,103072.12
2019-03-28T23:04:10.301Z,103069.50
2019-03-28T23:09:13.825Z,103081.34
2019-03-28T23:14:17.331Z,103064.65
2019-03-28T23:19:20.839Z,103072.55
2019-03-28T23:24:24.356Z,103068.17
2019-03-28T23:29:27.883Z,103067.31
2019-03-28T23:34:31.420Z,103056.35
2019-03-28T23:39:34.963Z,103051.57
2019-03-28T23:44:38.702Z,103049.82
2019-03-28T23:49:42.217Z,103044.14
2019-03-28T23:54:45.758Z,103044.61
2019-03-28T23:59:49.280Z,103038.05
